Kaumakani, HI (96747)

6:38 AM HST on September 26, 2016 (GMT -1000)
Waimea, Hi 96796 | | Change Station

Elev 60 ft 21.95 °N, 159.67 °W | Updated 13 seconds ago

Clear
Clear
71.9 °F
Feels Like 73 °F
N
5.0
Wind Variable Wind from ENE
Gusts 8.0 mph

Today
High -- | Low -- °F
--% Chance of Precip.
Yesterday
High -- | Low -- °F
Precip. -- in
Pressure 30.01 in
Visibility 10.0 miles
Clouds Clear
Heat Index 73 °F
Dew Point 64 °F
Humidity 77%
Rainfall 0.00 in
Snow Depth Not available.
6:28 AM 6:30 PM
Waning Crescent, 18% visible
METAR PHBK 261556Z AUTO 05003KT 10SM CLR 23/18 A3001 RMK AO2 SLP163 T02330183
Pressure 30.01 in
Visibility 10.0 miles
Clouds Clear
Heat Index 73 °F
Dew Point 64 °F
Humidity 77%
Rainfall 0.00 in
Snow Depth Not available.
6:28 AM 6:30 PM
Waning Crescent, 18% visible
METAR PHBK 261556Z AUTO 05003KT 10SM CLR 23/18 A3001 RMK AO2 SLP163 T02330183

10-Day Weather Forecast

Almanac

Astronomy

Sep. 26, 2016 Rise Set
Actual Time
Civil Twilight
Nautical Twilight
Astronomical Twilight
Moon
Length of Visible Light
Length of Day
Tomorrow will be .
, % of the Moon is Illuminated

Today's Extremes

State Highs State Lows

Community

WunderPhotos

Upload Photos

1,941,918 photos uploaded!

WunderBlog® & News

Nearby

Air Quality

  Air Quality AQ Index Pollutant
Not available.

Snow Depth

Station Depth Elevation

Earthquake Activity

City Distance Mag. Time & Date
Minimum magnitude displayed is 2.5.

Coastal Water Temperatures

Place Temperature

Stations

Nearby Weather Stations

Station Location Temp. Windchill Dew Point Humidity Wind Precip. Elev Updated Type
                   

Watches & Warnings

There are currently no watches in effect.